Quick Links (Output Below):   Max & Min Temps   /   Climate Reports   /   Zone Forecasts
River Forecasts   /   Forestry Forecasts   /   Aviation Forecasts   /   Radars   /   Features

Terminal Aerodrome Forecast (Fayetteville)

Pick a Site:
Arkadelphia | El Dorado | Fayetteville | Fort Smith | Harrison | Highfill | Hot Springs | Jonesboro
Little Rock | Monticello | Mountain Home | Pine Bluff | Texarkana
 Forecast 

KFYV 261212Z 2612/2712 26004KT P6SM FEW020
     FM261300 31004KT P6SM SKC
     FM261700 23010KT P6SM SKC
     FM270000 VRB03KT P6SM SKC=


 Latest METARs (Observations) 
How to Decode METARs
12Z KFYV 261153Z AUTO 26003KT 10SM FEW022 00/M03 A3013 RMK AO2 SLP208
         T00001028 10033 20000 51007
         
11Z KFYV 261053Z AUTO 30004KT 10SM OVC022 01/M02 A3011 RMK AO2 SLP203
         T00111017
         
10Z KFYV 260953Z AUTO 32006KT 10SM OVC021 02/M02 A3010 RMK AO2 SLP199
         T00171017
         
09Z KFYV 260853Z AUTO 34004KT 10SM OVC022 03/M01 A3011 RMK AO2 SLP199
         T00281011 58001
         
08Z KFYV 260753Z AUTO 36007KT 10SM OVC022 03/M01 A3011 RMK AO2 SLP200
         T00281011
         
07Z KFYV 260653Z AUTO 34007KT 10SM OVC023 03/M01 A3011 RMK AO2 SLP200
         T00331011
         
06Z KFYV 260553Z AUTO 35008G16KT 10SM OVC024 03/M01 A3011 RMK AO2
         SLP200 T00331011 10056 20033 401060033 53015
         
05Z KFYV 260453Z AUTO 36011KT 10SM OVC022 03/M01 A3010 RMK AO2 SLP197
         T00331006
         
04Z KFYV 260353Z AUTO 35010G17KT 10SM OVC023 04/00 A3007 RMK AO2
         SLP186 T00390000
         
03Z KFYV 260253Z 34014G18KT 10SM OVC022 04/00 A3007 RMK AO2 SLP184
         T00390000 51025
         
***** Today's Observations (Above) *****


Back to Main Page
http://www.srh.noaa.gov/lzk/qfcst.php

USA.gov is the U.S. government's official web portal to all federal, state and local government web resources and services.